createdAt,value
2017-07-22T00:01:08.670Z,6.83
2017-07-22T00:03:35.948Z,3.90
2017-07-22T00:06:09.335Z,6.30
2017-07-22T00:08:35.812Z,6.33
2017-07-22T00:11:02.305Z,11.50
2017-07-22T00:13:28.810Z,3.70
2017-07-22T00:15:56.034Z,9.83
2017-07-22T00:18:22.559Z,5.10
2017-07-22T00:20:49.033Z,8.57
2017-07-22T00:23:15.546Z,2.30
2017-07-22T00:25:42.812Z,6.97
2017-07-22T00:28:10.021Z,7.40
2017-07-22T00:30:36.515Z,6.70
2017-07-22T00:33:02.985Z,3.47
2017-07-22T00:35:29.508Z,2.10
2017-07-22T00:37:55.975Z,2.93
2017-07-22T00:40:22.456Z,2.80
2017-07-22T00:42:48.972Z,2.70
2017-07-22T00:45:15.479Z,3.87
2017-07-22T00:47:42.725Z,2.43
2017-07-22T00:50:09.214Z,2.27
2017-07-22T00:52:35.726Z,3.50
2017-07-22T00:55:02.215Z,9.40
2017-07-22T00:57:28.726Z,3.97
2017-07-22T00:59:55.293Z,1.90
2017-07-22T01:02:22.614Z,1.90
2017-07-22T01:04:49.109Z,2.40
2017-07-22T01:07:15.584Z,3.43
2017-07-22T01:09:42.115Z,3.77
2017-07-22T01:12:08.618Z,2.67
2017-07-22T01:14:35.123Z,2.00
2017-07-22T01:17:02.374Z,2.87
2017-07-22T01:19:29.628Z,4.37
2017-07-22T01:21:56.153Z,3.17
2017-07-22T01:24:23.344Z,4.60
2017-07-22T01:26:49.842Z,2.33
2017-07-22T01:29:17.061Z,3.00
2017-07-22T01:31:43.516Z,3.77
2017-07-22T01:34:10.852Z,3.87
2017-07-22T01:36:37.391Z,2.90
2017-07-22T01:39:04.640Z,5.03
2017-07-22T01:41:31.165Z,2.60
2017-07-22T01:43:57.693Z,2.63
2017-07-22T01:46:24.199Z,8.07
2017-07-22T01:48:50.740Z,2.13
2017-07-22T01:51:17.291Z,2.73
2017-07-22T01:53:43.815Z,3.00
2017-07-22T01:56:10.558Z,3.80
2017-07-22T01:58:37.086Z,3.87
2017-07-22T02:01:03.634Z,2.80
2017-07-22T02:03:30.164Z,2.40
2017-07-22T02:05:56.655Z,6.00
2017-07-22T02:08:23.149Z,4.67
2017-07-22T02:10:50.373Z,3.43
2017-07-22T02:13:16.910Z,2.43
2017-07-22T02:15:43.417Z,5.37
2017-07-22T02:18:09.953Z,5.03
2017-07-22T02:20:36.412Z,2.87
2017-07-22T02:23:02.877Z,4.00
2017-07-22T02:25:30.130Z,4.30
2017-07-22T02:27:56.608Z,2.90
2017-07-22T02:30:23.097Z,3.00
2017-07-22T02:32:49.593Z,2.30
2017-07-22T02:35:16.126Z,3.27
2017-07-22T02:37:42.594Z,3.80
2017-07-22T02:40:09.107Z,2.80
2017-07-22T02:42:36.334Z,2.50
2017-07-22T02:45:02.952Z,5.33
2017-07-22T02:47:29.470Z,4.17
2017-07-22T02:49:55.960Z,4.60
2017-07-22T02:52:22.429Z,6.30
2017-07-22T02:54:48.899Z,2.70
2017-07-22T02:57:15.385Z,3.57
2017-07-22T02:59:41.862Z,4.50
2017-07-22T03:02:08.534Z,6.13
2017-07-22T03:04:35.741Z,2.13
2017-07-22T03:07:02.239Z,3.30
2017-07-22T03:09:28.780Z,5.87
2017-07-22T03:11:55.253Z,1.83
2017-07-22T03:14:21.789Z,2.60
2017-07-22T03:16:48.295Z,3.70
2017-07-22T03:19:14.749Z,1.80
2017-07-22T03:21:41.274Z,4.33
2017-07-22T03:24:07.800Z,2.93
2017-07-22T03:26:34.321Z,2.10
2017-07-22T03:29:00.800Z,3.63
2017-07-22T03:31:27.398Z,6.07
2017-07-22T03:33:53.852Z,3.10
2017-07-22T03:36:20.336Z,2.33
2017-07-22T03:38:46.875Z,3.43
2017-07-22T03:41:13.330Z,7.87
2017-07-22T03:43:39.878Z,2.60
2017-07-22T03:46:06.369Z,2.27
2017-07-22T03:48:32.819Z,2.30
2017-07-22T03:50:59.314Z,3.43
2017-07-22T03:53:26.566Z,3.73
2017-07-22T03:55:53.082Z,1.90
2017-07-22T03:58:19.592Z,3.10
2017-07-22T04:00:46.071Z,2.30
2017-07-22T04:03:12.627Z,2.17
2017-07-22T04:05:39.138Z,2.10
2017-07-22T04:08:05.662Z,2.13
2017-07-22T04:10:32.129Z,1.73
2017-07-22T04:12:58.580Z,3.63
2017-07-22T04:15:25.106Z,3.67
2017-07-22T04:17:51.560Z,2.30
2017-07-22T04:20:18.069Z,2.47
2017-07-22T04:22:44.547Z,3.30
2017-07-22T04:25:11.073Z,6.70
2017-07-22T04:27:37.575Z,2.53
2017-07-22T04:30:04.071Z,3.27
2017-07-22T04:32:30.555Z,2.73
2017-07-22T04:34:57.078Z,3.03
2017-07-22T04:37:23.605Z,4.57
2017-07-22T04:39:50.111Z,3.40
2017-07-22T04:42:16.605Z,3.80
2017-07-22T04:44:43.837Z,2.27
2017-07-22T04:47:10.336Z,7.33
2017-07-22T04:49:36.853Z,4.20
2017-07-22T04:52:03.337Z,5.60
2017-07-22T04:54:29.792Z,3.27
2017-07-22T04:56:57.046Z,6.60
2017-07-22T04:59:24.267Z,2.10
2017-07-22T05:01:50.827Z,4.37
2017-07-22T05:04:18.074Z,2.37
2017-07-22T05:06:45.272Z,2.37
2017-07-22T05:09:11.803Z,3.33
2017-07-22T05:11:38.270Z,3.63
2017-07-22T05:14:04.780Z,3.07
2017-07-22T05:16:31.249Z,3.67
2017-07-22T05:18:58.464Z,2.00
2017-07-22T05:21:24.994Z,3.33
2017-07-22T05:23:51.489Z,3.43
2017-07-22T05:26:17.997Z,2.03
2017-07-22T05:28:44.459Z,2.50
2017-07-22T05:31:10.979Z,4.00
2017-07-22T05:33:37.445Z,4.20
2017-07-22T05:36:03.948Z,2.33
2017-07-22T05:38:30.436Z,1.90
2017-07-22T05:40:56.970Z,4.80
2017-07-22T05:43:23.480Z,2.40
2017-07-22T05:45:49.933Z,3.10
2017-07-22T05:48:16.475Z,2.90
2017-07-22T05:50:43.013Z,2.00
2017-07-22T05:53:09.509Z,4.07
2017-07-22T05:55:36.014Z,2.40
2017-07-22T05:58:02.559Z,3.07
2017-07-22T06:00:29.060Z,2.33
2017-07-22T06:02:56.296Z,5.53
2017-07-22T06:05:22.887Z,4.00
2017-07-22T06:07:49.343Z,3.30
2017-07-22T06:10:15.883Z,3.47
2017-07-22T06:12:42.415Z,3.00
2017-07-22T06:15:08.971Z,3.37
2017-07-22T06:17:35.480Z,4.30
2017-07-22T06:20:01.986Z,9.73
2017-07-22T06:22:28.484Z,5.00
2017-07-22T06:24:54.997Z,4.13
2017-07-22T06:27:21.552Z,3.80
2017-07-22T06:29:48.015Z,2.93
2017-07-22T06:32:14.538Z,5.00
2017-07-22T06:34:41.029Z,3.03
2017-07-22T06:37:07.546Z,3.83
2017-07-22T06:39:34.039Z,3.00
2017-07-22T06:42:00.509Z,2.10
2017-07-22T06:44:27.054Z,3.30
2017-07-22T06:46:53.587Z,3.33
2017-07-22T06:49:20.065Z,4.30
2017-07-22T06:51:46.547Z,2.77
2017-07-22T06:54:13.057Z,4.57
2017-07-22T06:56:39.533Z,3.57
2017-07-22T06:59:06.021Z,2.40
2017-07-22T07:01:32.546Z,3.93
2017-07-22T07:04:01.987Z,2.93
2017-07-22T07:06:28.569Z,2.47
2017-07-22T07:08:55.096Z,4.70
2017-07-22T07:11:21.555Z,3.27
2017-07-22T07:13:48.073Z,5.20
2017-07-22T07:16:14.538Z,6.20
2017-07-22T07:18:41.051Z,4.97
2017-07-22T07:21:07.567Z,2.53
2017-07-22T07:23:34.103Z,2.43
2017-07-22T07:26:00.582Z,6.03
2017-07-22T07:28:27.150Z,2.37
2017-07-22T07:30:55.340Z,2.93
2017-07-22T07:33:21.840Z,4.43
2017-07-22T07:35:49.108Z,7.20
2017-07-22T07:38:15.578Z,2.43
2017-07-22T07:40:42.079Z,2.87
2017-07-22T07:43:08.536Z,2.10
2017-07-22T07:45:35.068Z,5.30
2017-07-22T07:48:01.506Z,2.93
2017-07-22T07:50:28.003Z,1.90
2017-07-22T07:52:54.501Z,9.60
2017-07-22T07:55:20.965Z,2.20
2017-07-22T07:57:48.367Z,2.60
2017-07-22T08:00:14.926Z,7.80
2017-07-22T08:02:41.386Z,2.50
2017-07-22T08:05:07.933Z,6.03
2017-07-22T08:07:34.466Z,2.70
2017-07-22T08:10:01.144Z,6.20
2017-07-22T08:12:27.613Z,5.57
2017-07-22T08:14:54.887Z,5.63
2017-07-22T08:17:21.390Z,2.93
2017-07-22T08:19:48.602Z,6.67
2017-07-22T08:22:15.102Z,3.00
2017-07-22T08:24:41.574Z,2.60
2017-07-22T08:27:08.088Z,1.70
2017-07-22T08:29:34.521Z,9.10
2017-07-22T08:32:00.987Z,3.23
2017-07-22T08:34:27.480Z,6.63
2017-07-22T08:36:54.695Z,4.30
2017-07-22T08:39:22.094Z,3.47
2017-07-22T08:41:48.589Z,2.17
2017-07-22T08:44:15.077Z,4.27
2017-07-22T08:46:41.586Z,2.70
2017-07-22T08:49:08.091Z,3.57
2017-07-22T08:51:34.585Z,2.97
2017-07-22T08:54:01.071Z,5.80
2017-07-22T08:56:27.537Z,2.93
2017-07-22T08:58:54.046Z,2.80
2017-07-22T09:01:20.557Z,5.73
2017-07-22T09:03:47.074Z,9.73
2017-07-22T09:06:14.313Z,4.57
2017-07-22T09:08:40.849Z,5.40
2017-07-22T09:11:08.080Z,3.40
2017-07-22T09:13:34.584Z,4.07
2017-07-22T09:16:01.110Z,3.80
2017-07-22T09:18:27.560Z,6.17
2017-07-22T09:20:54.077Z,2.20
2017-07-22T09:23:20.568Z,2.90
2017-07-22T09:25:47.777Z,3.00
2017-07-22T09:28:14.291Z,3.60
2017-07-22T09:30:40.770Z,1.90
2017-07-22T09:33:07.288Z,3.37
2017-07-22T09:35:33.758Z,4.50
2017-07-22T09:38:01.162Z,4.33
2017-07-22T09:40:27.644Z,2.13
2017-07-22T09:42:54.854Z,4.60
2017-07-22T09:45:21.379Z,2.30
2017-07-22T09:47:47.866Z,5.23
2017-07-22T09:50:14.396Z,2.43
2017-07-22T09:52:40.852Z,3.20
2017-07-22T09:55:07.348Z,2.50
2017-07-22T09:57:34.580Z,5.00
2017-07-22T10:00:01.048Z,2.47
2017-07-22T10:02:27.557Z,2.37
2017-07-22T10:04:54.791Z,2.60
2017-07-22T10:07:21.309Z,2.90
2017-07-22T10:09:47.782Z,3.10
2017-07-22T10:12:15.062Z,3.93
2017-07-22T10:14:41.534Z,3.23
2017-07-22T10:17:08.010Z,2.87
2017-07-22T10:19:34.530Z,3.47
2017-07-22T10:22:01.746Z,2.77
2017-07-22T10:24:28.245Z,3.90
2017-07-22T10:26:54.690Z,3.40
2017-07-22T10:29:21.199Z,7.97
2017-07-22T10:31:47.653Z,4.70
2017-07-22T10:34:14.171Z,2.57
2017-07-22T10:36:40.671Z,3.83
2017-07-22T10:39:07.868Z,1.80
2017-07-22T10:41:34.403Z,3.00
2017-07-22T10:44:00.877Z,3.03
2017-07-22T10:46:28.123Z,1.73
2017-07-22T10:48:54.610Z,6.27
2017-07-22T10:51:21.143Z,2.43
2017-07-22T10:53:47.864Z,2.53
2017-07-22T10:56:15.378Z,2.27
2017-07-22T10:58:41.890Z,4.10
2017-07-22T11:01:08.961Z,2.57
2017-07-22T11:03:35.450Z,3.03
2017-07-22T11:06:02.318Z,1.87
2017-07-22T11:08:30.089Z,2.07
2017-07-22T11:10:56.586Z,2.00
2017-07-22T11:13:23.060Z,4.33
2017-07-22T11:15:49.639Z,3.23
2017-07-22T11:18:16.149Z,2.30
2017-07-22T11:20:43.437Z,2.40
2017-07-22T11:23:09.954Z,2.43
2017-07-22T11:25:36.401Z,6.90
2017-07-22T11:28:02.915Z,9.10
2017-07-22T11:30:29.369Z,5.63
2017-07-22T11:32:55.883Z,2.80
2017-07-22T11:35:22.570Z,2.30
2017-07-22T11:37:49.046Z,1.87
2017-07-22T11:40:17.177Z,2.43
2017-07-22T11:42:44.718Z,1.80
2017-07-22T11:45:21.244Z,3.47
2017-07-22T11:47:48.881Z,2.30
2017-07-22T11:50:32.112Z,2.30
2017-07-22T11:52:59.370Z,1.70
2017-07-22T11:55:25.895Z,2.17
2017-07-22T11:57:53.149Z,2.63
2017-07-22T12:00:20.436Z,4.03
2017-07-22T12:02:46.934Z,3.10
2017-07-22T12:05:14.145Z,4.50
2017-07-22T12:07:41.813Z,2.83
2017-07-22T12:10:08.274Z,1.40
2017-07-22T12:12:35.515Z,5.90
2017-07-22T12:15:02.833Z,2.43
2017-07-22T12:17:29.342Z,2.83
2017-07-22T12:19:55.857Z,7.83
2017-07-22T12:22:22.316Z,2.33
2017-07-22T12:24:48.822Z,1.73
2017-07-22T12:27:15.326Z,4.37
2017-07-22T12:29:42.545Z,1.67
2017-07-22T12:32:09.133Z,2.03
2017-07-22T12:34:35.603Z,2.90
2017-07-22T12:37:02.134Z,1.80
2017-07-22T12:39:28.631Z,2.30
2017-07-22T12:41:55.102Z,3.00
2017-07-22T12:44:21.620Z,3.50
2017-07-22T12:46:48.090Z,4.87
2017-07-22T12:49:14.590Z,3.17
2017-07-22T12:51:41.068Z,2.10
2017-07-22T12:54:07.607Z,1.90
2017-07-22T12:56:34.830Z,2.23
2017-07-22T12:59:01.285Z,2.03
2017-07-22T13:01:28.537Z,1.57
2017-07-22T13:03:55.807Z,1.63
2017-07-22T13:06:22.320Z,4.40
2017-07-22T13:08:49.570Z,2.00
2017-07-22T13:11:16.775Z,1.90
2017-07-22T13:13:43.267Z,3.40
2017-07-22T13:16:10.533Z,1.63
2017-07-22T13:18:37.053Z,4.40
2017-07-22T13:21:04.252Z,2.00
2017-07-22T13:23:30.782Z,5.47
2017-07-22T13:25:57.258Z,2.00
2017-07-22T13:28:24.470Z,3.83
2017-07-22T13:30:50.953Z,1.67
2017-07-22T13:33:17.434Z,1.90
2017-07-22T13:35:43.947Z,2.40
2017-07-22T13:38:10.467Z,2.40
2017-07-22T13:40:36.967Z,2.60
2017-07-22T13:43:04.178Z,2.53
2017-07-22T13:45:30.649Z,2.33
2017-07-22T13:47:57.906Z,2.57
2017-07-22T13:50:25.101Z,3.17
2017-07-22T13:52:51.743Z,1.80
2017-07-22T13:55:18.240Z,3.50
2017-07-22T13:57:44.698Z,3.00
2017-07-22T14:00:11.263Z,3.47
2017-07-22T14:02:37.700Z,2.80
2017-07-22T14:05:04.659Z,2.07
2017-07-22T14:07:31.184Z,2.20
2017-07-22T14:09:57.841Z,5.63
2017-07-22T14:12:25.041Z,4.73
2017-07-22T14:14:51.556Z,2.23
2017-07-22T14:17:18.486Z,7.43
2017-07-22T14:19:45.284Z,2.80
2017-07-22T14:22:11.810Z,3.80
2017-07-22T14:24:38.308Z,2.47
2017-07-22T14:27:04.991Z,2.37
2017-07-22T14:29:31.456Z,4.00
2017-07-22T14:31:57.924Z,3.37
2017-07-22T14:34:24.442Z,3.00
2017-07-22T14:36:50.922Z,2.50
2017-07-22T14:39:18.180Z,2.23
2017-07-22T14:41:45.399Z,2.30
2017-07-22T14:44:11.896Z,2.07
2017-07-22T14:46:38.391Z,2.70
2017-07-22T14:49:05.650Z,3.03
2017-07-22T14:51:32.122Z,4.13
2017-07-22T14:53:58.586Z,3.37
2017-07-22T14:56:25.086Z,2.93
2017-07-22T14:58:51.548Z,2.50
2017-07-22T15:01:18.059Z,3.90
2017-07-22T15:03:44.539Z,2.50
2017-07-22T15:06:11.805Z,5.00
2017-07-22T15:08:38.341Z,4.03
2017-07-22T15:11:04.839Z,2.57
2017-07-22T15:13:31.320Z,3.37
2017-07-22T15:15:57.791Z,4.23
2017-07-22T15:18:24.419Z,3.30
2017-07-22T15:20:50.880Z,4.93
2017-07-22T15:23:17.346Z,2.50
2017-07-22T15:25:43.861Z,2.27
2017-07-22T15:28:11.135Z,2.23
2017-07-22T15:30:37.813Z,2.70
2017-07-22T15:33:04.311Z,3.80
2017-07-22T15:35:30.781Z,2.00
2017-07-22T15:37:57.281Z,3.87
2017-07-22T15:40:23.751Z,1.77
2017-07-22T15:42:50.234Z,2.50
2017-07-22T15:45:16.718Z,4.00
2017-07-22T15:47:43.218Z,4.00
2017-07-22T15:50:09.654Z,3.83
2017-07-22T15:52:36.102Z,4.47
2017-07-22T15:55:02.637Z,8.97
2017-07-22T15:57:29.106Z,8.87
2017-07-22T15:59:55.636Z,6.43
2017-07-22T16:02:22.837Z,3.07
2017-07-22T16:04:49.333Z,6.70
2017-07-22T16:07:15.805Z,4.40
2017-07-22T16:09:42.282Z,2.37
2017-07-22T16:12:09.523Z,3.07
2017-07-22T16:14:36.744Z,3.60
2017-07-22T16:17:03.242Z,3.40
2017-07-22T16:19:29.694Z,7.20
2017-07-22T16:21:56.181Z,6.50
2017-07-22T16:24:23.410Z,6.07
2017-07-22T16:26:49.921Z,9.10
2017-07-22T16:29:16.422Z,4.07
2017-07-22T16:31:42.892Z,17.50
2017-07-22T16:34:09.393Z,5.63
2017-07-22T16:36:35.846Z,3.23
2017-07-22T16:39:02.361Z,5.20
2017-07-22T16:41:28.855Z,5.40
2017-07-22T16:43:56.051Z,13.43
2017-07-22T16:46:22.549Z,8.23
2017-07-22T16:48:49.199Z,5.60
2017-07-22T16:51:15.751Z,11.20
2017-07-22T16:53:42.210Z,10.57
2017-07-22T16:56:08.660Z,6.63
2017-07-22T16:58:35.901Z,4.00
2017-07-22T17:01:02.381Z,8.90
2017-07-22T17:03:30.024Z,5.40
2017-07-22T17:05:56.493Z,5.87
2017-07-22T17:08:22.967Z,6.93
2017-07-22T17:10:50.249Z,6.00
2017-07-22T17:13:16.817Z,11.43
2017-07-22T17:15:43.334Z,3.57
2017-07-22T17:18:09.834Z,7.80
2017-07-22T17:20:37.080Z,3.93
2017-07-22T17:23:04.332Z,7.77
2017-07-22T17:25:30.797Z,8.20
2017-07-22T17:27:57.349Z,9.07
2017-07-22T17:30:23.833Z,6.70
2017-07-22T17:32:51.046Z,5.43
2017-07-22T17:35:17.559Z,3.10
2017-07-22T17:37:44.024Z,3.43
2017-07-22T17:40:10.534Z,9.23
2017-07-22T17:42:37.013Z,12.20
2017-07-22T17:45:03.493Z,8.30
2017-07-22T17:47:29.987Z,9.87
2017-07-22T17:49:56.479Z,7.57
2017-07-22T17:52:22.989Z,7.70
2017-07-22T17:54:49.456Z,5.63
2017-07-22T17:57:16.400Z,5.53
2017-07-22T17:59:43.610Z,5.47
2017-07-22T18:02:10.059Z,4.47
2017-07-22T18:04:36.567Z,4.07
2017-07-22T18:07:03.059Z,6.70
2017-07-22T18:09:30.354Z,4.00
2017-07-22T18:11:56.839Z,3.47
2017-07-22T18:14:24.005Z,6.00
2017-07-22T18:16:50.498Z,5.50
2017-07-22T18:19:16.948Z,3.13
2017-07-22T18:21:44.175Z,4.67
2017-07-22T18:24:10.647Z,3.10
2017-07-22T18:26:37.154Z,3.37
2017-07-22T18:29:04.370Z,5.57
2017-07-22T18:31:30.846Z,4.43
2017-07-22T18:33:58.193Z,3.87
2017-07-22T18:36:25.443Z,3.20
2017-07-22T18:38:52.711Z,5.70
2017-07-22T18:41:19.915Z,7.57
2017-07-22T18:43:46.398Z,4.23
2017-07-22T18:46:12.880Z,3.67
2017-07-22T18:48:39.342Z,3.93
2017-07-22T18:51:05.851Z,5.77
2017-07-22T18:53:32.327Z,3.40
2017-07-22T18:55:58.895Z,4.63
2017-07-22T18:58:25.379Z,5.40
2017-07-22T19:00:52.692Z,4.83
2017-07-22T19:03:19.169Z,7.97
2017-07-22T19:05:46.363Z,3.97
2017-07-22T19:08:12.861Z,4.50
2017-07-22T19:10:39.393Z,8.40
2017-07-22T19:13:05.898Z,5.90
2017-07-22T19:15:32.366Z,9.50
2017-07-22T19:17:58.895Z,13.20
2017-07-22T19:20:25.385Z,8.97
2017-07-22T19:22:51.864Z,10.87
2017-07-22T19:25:18.357Z,14.90
2017-07-22T19:27:45.657Z,6.90
2017-07-22T19:30:12.168Z,8.60
2017-07-22T19:32:38.646Z,6.07
2017-07-22T19:35:05.155Z,6.00
2017-07-22T19:37:31.617Z,5.50
2017-07-22T19:39:58.143Z,5.87
2017-07-22T19:42:24.617Z,5.07
2017-07-22T19:44:51.801Z,5.27
2017-07-22T19:47:18.297Z,5.23
2017-07-22T19:49:45.520Z,4.10
2017-07-22T19:52:12.038Z,6.60
2017-07-22T19:54:38.522Z,6.67
2017-07-22T19:57:04.997Z,4.53
2017-07-22T19:59:31.518Z,8.80
2017-07-22T20:01:57.994Z,6.50
2017-07-22T20:04:24.500Z,5.47
2017-07-22T20:06:50.961Z,5.37
2017-07-22T20:09:17.493Z,4.80
2017-07-22T20:11:44.022Z,5.87
2017-07-22T20:14:10.491Z,6.30
2017-07-22T20:16:36.996Z,7.37
2017-07-22T20:19:03.459Z,8.77
2017-07-22T20:21:29.991Z,9.20
2017-07-22T20:23:56.473Z,12.00
2017-07-22T20:26:22.996Z,14.63
2017-07-22T20:28:49.492Z,12.13
2017-07-22T20:31:15.957Z,14.70
2017-07-22T20:33:42.450Z,14.83
2017-07-22T20:36:09.677Z,18.00
2017-07-22T20:38:36.909Z,13.40
2017-07-22T20:41:03.398Z,12.00
2017-07-22T20:43:29.913Z,13.90
2017-07-22T20:45:57.122Z,13.50
2017-07-22T20:48:23.590Z,10.00
2017-07-22T20:50:50.813Z,9.10
2017-07-22T20:53:17.286Z,9.40
2017-07-22T20:55:43.797Z,7.90
2017-07-22T20:58:11.067Z,8.70
2017-07-22T21:00:37.632Z,14.50
2017-07-22T21:03:04.105Z,8.10
2017-07-22T21:05:30.662Z,8.00
2017-07-22T21:07:57.886Z,10.57
2017-07-22T21:10:24.344Z,11.70
2017-07-22T21:12:51.605Z,9.40
2017-07-22T21:15:18.077Z,14.60
2017-07-22T21:17:44.593Z,9.53
2017-07-22T21:20:11.095Z,11.87
2017-07-22T21:22:37.563Z,15.90
2017-07-22T21:25:04.086Z,12.27
2017-07-22T21:27:30.551Z,12.60
2017-07-22T21:29:57.041Z,15.33
2017-07-22T21:32:23.485Z,11.80
2017-07-22T21:34:49.981Z,12.43
2017-07-22T21:37:17.183Z,19.07
2017-07-22T21:39:43.683Z,10.00
2017-07-22T21:42:10.169Z,11.00
2017-07-22T21:44:36.674Z,9.33
2017-07-22T21:47:03.161Z,7.07
2017-07-22T21:49:30.382Z,11.00
2017-07-22T21:51:56.895Z,16.20
2017-07-22T21:54:23.350Z,10.17
2017-07-22T21:56:49.857Z,11.33
2017-07-22T21:59:16.349Z,14.20
2017-07-22T22:01:42.840Z,13.17
2017-07-22T22:04:09.324Z,11.13
2017-07-22T22:06:35.795Z,6.77
2017-07-22T22:09:02.381Z,8.10
2017-07-22T22:11:28.844Z,10.13
2017-07-22T22:13:55.400Z,10.67
2017-07-22T22:16:21.862Z,6.17
2017-07-22T22:18:49.078Z,8.63
2017-07-22T22:21:15.582Z,8.63
2017-07-22T22:23:42.087Z,8.33
2017-07-22T22:26:09.346Z,15.50
2017-07-22T22:28:35.810Z,10.63
2017-07-22T22:31:02.316Z,10.83
2017-07-22T22:33:28.813Z,9.43
2017-07-22T22:35:55.274Z,11.97
2017-07-22T22:38:21.788Z,8.73
2017-07-22T22:40:49.007Z,7.80
2017-07-22T22:43:15.478Z,6.80
2017-07-22T22:45:42.730Z,8.20
2017-07-22T22:48:09.933Z,6.80
2017-07-22T22:50:36.417Z,7.73
2017-07-22T22:53:03.652Z,9.33
2017-07-22T22:55:30.915Z,5.97
2017-07-22T22:57:58.113Z,8.83
2017-07-22T23:00:24.583Z,14.97
2017-07-22T23:02:51.833Z,13.83
2017-07-22T23:05:18.319Z,13.20
2017-07-22T23:07:44.830Z,14.60
2017-07-22T23:10:11.296Z,11.70
2017-07-22T23:12:37.803Z,12.00
2017-07-22T23:15:04.349Z,10.40
2017-07-22T23:17:31.511Z,9.50
2017-07-22T23:19:58.013Z,7.90
2017-07-22T23:22:24.480Z,12.10
2017-07-22T23:24:50.982Z,6.57
2017-07-22T23:27:17.460Z,6.27
2017-07-22T23:29:43.931Z,7.83
2017-07-22T23:32:10.444Z,6.50
2017-07-22T23:34:37.653Z,9.90
2017-07-22T23:37:04.172Z,10.03
2017-07-22T23:39:30.658Z,7.43
2017-07-22T23:41:57.841Z,7.53
2017-07-22T23:44:24.339Z,7.87
2017-07-22T23:46:51.558Z,7.97
2017-07-22T23:49:18.081Z,7.63
2017-07-22T23:51:44.608Z,8.07
2017-07-22T23:54:11.122Z,7.53
2017-07-22T23:56:37.581Z,6.70
2017-07-22T23:59:04.055Z,4.70
